sensor_id;sensor_type;location;lat;lon;timestamp;temperature;humidity
16315;DHT22;8266;52.150;4.768;2022-12-08T00:01:18;6.80;99.90
16315;DHT22;8266;52.150;4.768;2022-12-08T00:03:46;6.70;99.90
16315;DHT22;8266;52.150;4.768;2022-12-08T00:06:21;6.70;99.90
16315;DHT22;8266;52.150;4.768;2022-12-08T00:09:15;6.70;99.90
16315;DHT22;8266;52.150;4.768;2022-12-08T00:11:53;6.80;99.90
16315;DHT22;8266;52.150;4.768;2022-12-08T00:14:24;6.80;99.90
16315;DHT22;8266;52.150;4.768;2022-12-08T00:16:52;6.80;99.90
16315;DHT22;8266;52.150;4.768;2022-12-08T00:19:19;6.80;99.90
16315;DHT22;8266;52.150;4.768;2022-12-08T00:21:46;6.80;99.90
16315;DHT22;8266;52.150;4.768;2022-12-08T00:24:14;6.80;99.90
16315;DHT22;8266;52.150;4.768;2022-12-08T00:26:41;6.90;99.90
16315;DHT22;8266;52.150;4.768;2022-12-08T00:29:08;6.80;99.90
16315;DHT22;8266;52.150;4.768;2022-12-08T00:31:37;6.90;99.90
16315;DHT22;8266;52.150;4.768;2022-12-08T00:34:04;6.90;99.90
16315;DHT22;8266;52.150;4.768;2022-12-08T00:36:31;6.80;99.90
16315;DHT22;8266;52.150;4.768;2022-12-08T00:38:58;6.90;99.90
16315;DHT22;8266;52.150;4.768;2022-12-08T00:41:27;6.90;99.90
16315;DHT22;8266;52.150;4.768;2022-12-08T00:44:13;6.80;99.90
16315;DHT22;8266;52.150;4.768;2022-12-08T00:46:41;6.90;99.90
16315;DHT22;8266;52.150;4.768;2022-12-08T00:49:08;6.90;99.90
16315;DHT22;8266;52.150;4.768;2022-12-08T00:51:36;6.80;99.90
16315;DHT22;8266;52.150;4.768;2022-12-08T00:54:03;6.90;99.90
16315;DHT22;8266;52.150;4.768;2022-12-08T00:56:31;6.80;99.90
16315;DHT22;8266;52.150;4.768;2022-12-08T00:58:59;6.80;99.90
16315;DHT22;8266;52.150;4.768;2022-12-08T01:01:26;6.80;99.90
16315;DHT22;8266;52.150;4.768;2022-12-08T01:03:54;6.80;99.90
16315;DHT22;8266;52.150;4.768;2022-12-08T01:06:21;6.80;99.90
16315;DHT22;8266;52.150;4.768;2022-12-08T01:08:48;6.80;99.90
16315;DHT22;8266;52.150;4.768;2022-12-08T01:11:17;6.80;99.90
16315;DHT22;8266;52.150;4.768;2022-12-08T01:13:46;6.90;99.90
16315;DHT22;8266;52.150;4.768;2022-12-08T01:16:20;6.80;99.90
16315;DHT22;8266;52.150;4.768;2022-12-08T01:18:47;6.80;99.90
16315;DHT22;8266;52.150;4.768;2022-12-08T01:21:16;6.80;99.90
16315;DHT22;8266;52.150;4.768;2022-12-08T01:23:44;6.80;99.90
16315;DHT22;8266;52.150;4.768;2022-12-08T01:26:14;6.80;99.90
16315;DHT22;8266;52.150;4.768;2022-12-08T01:28:41;6.80;99.90
16315;DHT22;8266;52.150;4.768;2022-12-08T01:31:10;6.80;99.90
16315;DHT22;8266;52.150;4.768;2022-12-08T01:33:39;6.80;99.90
16315;DHT22;8266;52.150;4.768;2022-12-08T01:36:07;6.90;99.90
16315;DHT22;8266;52.150;4.768;2022-12-08T01:38:36;6.90;99.90
16315;DHT22;8266;52.150;4.768;2022-12-08T01:41:03;6.80;99.90
16315;DHT22;8266;52.150;4.768;2022-12-08T01:43:57;6.90;99.90
16315;DHT22;8266;52.150;4.768;2022-12-08T01:46:26;6.80;99.90
16315;DHT22;8266;52.150;4.768;2022-12-08T01:48:55;6.90;99.90
16315;DHT22;8266;52.150;4.768;2022-12-08T01:51:24;6.90;99.90
16315;DHT22;8266;52.150;4.768;2022-12-08T01:53:53;6.80;99.90
16315;DHT22;8266;52.150;4.768;2022-12-08T01:56:26;6.80;99.90
16315;DHT22;8266;52.150;4.768;2022-12-08T01:58:54;6.80;99.90
16315;DHT22;8266;52.150;4.768;2022-12-08T02:01:22;6.80;99.90
16315;DHT22;8266;52.150;4.768;2022-12-08T02:03:53;6.80;99.90
16315;DHT22;8266;52.150;4.768;2022-12-08T02:06:21;6.90;99.90
16315;DHT22;8266;52.150;4.768;2022-12-08T02:08:49;6.90;99.90
16315;DHT22;8266;52.150;4.768;2022-12-08T02:11:18;6.90;99.90
16315;DHT22;8266;52.150;4.768;2022-12-08T02:13:46;6.90;99.90
16315;DHT22;8266;52.150;4.768;2022-12-08T02:16:22;6.90;99.90
16315;DHT22;8266;52.150;4.768;2022-12-08T02:19:01;6.90;99.90
16315;DHT22;8266;52.150;4.768;2022-12-08T02:21:40;7.00;99.90
16315;DHT22;8266;52.150;4.768;2022-12-08T02:24:16;6.90;99.90
16315;DHT22;8266;52.150;4.768;2022-12-08T02:30:07;6.90;99.90
16315;DHT22;8266;52.150;4.768;2022-12-08T02:35:35;6.90;99.90
16315;DHT22;8266;52.150;4.768;2022-12-08T02:38:09;6.90;99.90
16315;DHT22;8266;52.150;4.768;2022-12-08T02:40:47;7.00;99.90
16315;DHT22;8266;52.150;4.768;2022-12-08T02:43:23;6.90;99.90
16315;DHT22;8266;52.150;4.768;2022-12-08T02:45:57;6.90;99.90
16315;DHT22;8266;52.150;4.768;2022-12-08T02:48:26;7.00;99.90
16315;DHT22;8266;52.150;4.768;2022-12-08T02:50:54;6.90;99.90
16315;DHT22;8266;52.150;4.768;2022-12-08T02:53:22;6.90;99.90
16315;DHT22;8266;52.150;4.768;2022-12-08T02:55:55;6.90;99.90
16315;DHT22;8266;52.150;4.768;2022-12-08T02:58:46;6.90;99.90
16315;DHT22;8266;52.150;4.768;2022-12-08T03:01:30;6.80;99.90
16315;DHT22;8266;52.150;4.768;2022-12-08T03:04:02;6.80;99.90
16315;DHT22;8266;52.150;4.768;2022-12-08T03:06:34;6.80;99.90
16315;DHT22;8266;52.150;4.768;2022-12-08T03:09:12;6.80;99.90
16315;DHT22;8266;52.150;4.768;2022-12-08T03:11:45;6.90;99.90
16315;DHT22;8266;52.150;4.768;2022-12-08T03:14:15;6.80;99.90
16315;DHT22;8266;52.150;4.768;2022-12-08T03:16:45;6.80;99.90
16315;DHT22;8266;52.150;4.768;2022-12-08T03:19:16;6.90;99.90
16315;DHT22;8266;52.150;4.768;2022-12-08T03:21:48;6.80;99.90
16315;DHT22;8266;52.150;4.768;2022-12-08T03:24:16;6.80;99.90
16315;DHT22;8266;52.150;4.768;2022-12-08T03:26:47;6.80;99.90
16315;DHT22;8266;52.150;4.768;2022-12-08T03:29:16;6.90;99.90
16315;DHT22;8266;52.150;4.768;2022-12-08T03:31:48;6.80;99.90
16315;DHT22;8266;52.150;4.768;2022-12-08T03:34:16;6.80;99.90
16315;DHT22;8266;52.150;4.768;2022-12-08T03:36:46;6.80;99.90
16315;DHT22;8266;52.150;4.768;2022-12-08T03:39:13;6.90;99.90
16315;DHT22;8266;52.150;4.768;2022-12-08T03:41:40;6.80;99.90
16315;DHT22;8266;52.150;4.768;2022-12-08T03:44:07;6.80;99.90
16315;DHT22;8266;52.150;4.768;2022-12-08T03:46:34;6.80;99.90
16315;DHT22;8266;52.150;4.768;2022-12-08T03:49:01;6.90;99.90
16315;DHT22;8266;52.150;4.768;2022-12-08T03:51:28;6.90;99.90
16315;DHT22;8266;52.150;4.768;2022-12-08T03:53:57;6.90;99.90
16315;DHT22;8266;52.150;4.768;2022-12-08T03:56:25;6.90;99.90
16315;DHT22;8266;52.150;4.768;2022-12-08T03:58:53;6.80;99.90
16315;DHT22;8266;52.150;4.768;2022-12-08T04:01:21;6.80;99.90
16315;DHT22;8266;52.150;4.768;2022-12-08T04:03:48;6.80;99.90
16315;DHT22;8266;52.150;4.768;2022-12-08T04:06:16;6.80;99.90
16315;DHT22;8266;52.150;4.768;2022-12-08T04:08:43;6.80;99.90
16315;DHT22;8266;52.150;4.768;2022-12-08T04:11:12;6.80;99.90
16315;DHT22;8266;52.150;4.768;2022-12-08T04:13:40;6.90;99.90
16315;DHT22;8266;52.150;4.768;2022-12-08T04:16:08;6.80;99.90
16315;DHT22;8266;52.150;4.768;2022-12-08T04:18:40;6.70;99.90
16315;DHT22;8266;52.150;4.768;2022-12-08T04:21:07;6.70;99.90
16315;DHT22;8266;52.150;4.768;2022-12-08T04:23:34;6.60;99.90
16315;DHT22;8266;52.150;4.768;2022-12-08T04:26:00;6.70;99.90
16315;DHT22;8266;52.150;4.768;2022-12-08T04:28:29;6.60;99.90
16315;DHT22;8266;52.150;4.768;2022-12-08T04:30:56;6.60;99.90
16315;DHT22;8266;52.150;4.768;2022-12-08T04:33:23;6.60;99.90
16315;DHT22;8266;52.150;4.768;2022-12-08T04:35:50;6.60;99.90
16315;DHT22;8266;52.150;4.768;2022-12-08T04:38:17;6.50;99.90
16315;DHT22;8266;52.150;4.768;2022-12-08T04:40:44;6.50;99.90
16315;DHT22;8266;52.150;4.768;2022-12-08T04:43:12;6.50;99.90
16315;DHT22;8266;52.150;4.768;2022-12-08T04:45:41;6.60;99.90
16315;DHT22;8266;52.150;4.768;2022-12-08T04:48:08;6.50;99.90
16315;DHT22;8266;52.150;4.768;2022-12-08T04:50:38;6.50;99.90
16315;DHT22;8266;52.150;4.768;2022-12-08T04:53:06;6.60;99.90
16315;DHT22;8266;52.150;4.768;2022-12-08T04:55:33;6.50;99.90
16315;DHT22;8266;52.150;4.768;2022-12-08T04:58:00;6.50;99.90
16315;DHT22;8266;52.150;4.768;2022-12-08T05:00:27;6.50;99.90
16315;DHT22;8266;52.150;4.768;2022-12-08T05:02:55;6.50;99.90
16315;DHT22;8266;52.150;4.768;2022-12-08T05:05:22;6.50;99.90
16315;DHT22;8266;52.150;4.768;2022-12-08T05:07:49;6.60;99.90
16315;DHT22;8266;52.150;4.768;2022-12-08T05:10:16;6.50;99.90
16315;DHT22;8266;52.150;4.768;2022-12-08T05:12:43;6.60;99.90
16315;DHT22;8266;52.150;4.768;2022-12-08T05:15:10;6.60;99.90
16315;DHT22;8266;52.150;4.768;2022-12-08T05:17:37;6.50;99.90
16315;DHT22;8266;52.150;4.768;2022-12-08T05:20:07;6.50;99.90
16315;DHT22;8266;52.150;4.768;2022-12-08T05:22:36;6.40;99.90
16315;DHT22;8266;52.150;4.768;2022-12-08T05:25:03;6.40;99.90
16315;DHT22;8266;52.150;4.768;2022-12-08T05:27:31;6.40;99.90
16315;DHT22;8266;52.150;4.768;2022-12-08T05:29:58;6.40;99.90
16315;DHT22;8266;52.150;4.768;2022-12-08T05:32:25;6.30;99.90
16315;DHT22;8266;52.150;4.768;2022-12-08T05:34:53;6.50;99.90
16315;DHT22;8266;52.150;4.768;2022-12-08T05:37:21;6.40;99.90
16315;DHT22;8266;52.150;4.768;2022-12-08T05:39:48;6.50;99.90
16315;DHT22;8266;52.150;4.768;2022-12-08T05:42:15;6.50;99.90
16315;DHT22;8266;52.150;4.768;2022-12-08T05:44:45;6.40;99.90
16315;DHT22;8266;52.150;4.768;2022-12-08T05:47:12;6.50;99.90
16315;DHT22;8266;52.150;4.768;2022-12-08T05:49:39;6.50;99.90
16315;DHT22;8266;52.150;4.768;2022-12-08T05:52:06;6.50;99.90
16315;DHT22;8266;52.150;4.768;2022-12-08T05:54:35;6.60;99.90
16315;DHT22;8266;52.150;4.768;2022-12-08T05:57:02;6.50;99.90
16315;DHT22;8266;52.150;4.768;2022-12-08T05:59:29;6.50;99.90
16315;DHT22;8266;52.150;4.768;2022-12-08T06:01:56;6.60;99.90
16315;DHT22;8266;52.150;4.768;2022-12-08T06:04:23;6.40;99.90
16315;DHT22;8266;52.150;4.768;2022-12-08T06:06:52;6.50;99.90
16315;DHT22;8266;52.150;4.768;2022-12-08T06:09:19;6.40;99.90
16315;DHT22;8266;52.150;4.768;2022-12-08T06:11:48;6.40;99.90
16315;DHT22;8266;52.150;4.768;2022-12-08T06:14:15;6.40;99.90
16315;DHT22;8266;52.150;4.768;2022-12-08T06:16:42;6.40;99.90
16315;DHT22;8266;52.150;4.768;2022-12-08T06:19:09;6.40;99.90
16315;DHT22;8266;52.150;4.768;2022-12-08T06:21:39;6.40;99.90
16315;DHT22;8266;52.150;4.768;2022-12-08T06:24:09;6.30;99.90
16315;DHT22;8266;52.150;4.768;2022-12-08T06:26:36;6.30;99.90
16315;DHT22;8266;52.150;4.768;2022-12-08T06:29:06;6.40;99.90
16315;DHT22;8266;52.150;4.768;2022-12-08T06:31:33;6.40;99.90
16315;DHT22;8266;52.150;4.768;2022-12-08T06:34:00;6.30;99.90
16315;DHT22;8266;52.150;4.768;2022-12-08T06:36:27;6.40;99.90
16315;DHT22;8266;52.150;4.768;2022-12-08T06:38:54;6.40;99.90
16315;DHT22;8266;52.150;4.768;2022-12-08T06:41:21;6.40;99.90
16315;DHT22;8266;52.150;4.768;2022-12-08T06:43:49;6.50;99.90
16315;DHT22;8266;52.150;4.768;2022-12-08T06:46:18;6.50;99.90
16315;DHT22;8266;52.150;4.768;2022-12-08T06:48:45;6.40;99.90
16315;DHT22;8266;52.150;4.768;2022-12-08T06:51:15;6.40;99.90
16315;DHT22;8266;52.150;4.768;2022-12-08T06:53:44;6.40;99.90
16315;DHT22;8266;52.150;4.768;2022-12-08T06:56:12;6.30;99.90
16315;DHT22;8266;52.150;4.768;2022-12-08T06:58:40;6.30;99.90
16315;DHT22;8266;52.150;4.768;2022-12-08T07:01:09;6.30;99.90
16315;DHT22;8266;52.150;4.768;2022-12-08T07:03:39;6.20;99.90
16315;DHT22;8266;52.150;4.768;2022-12-08T07:06:12;6.30;99.90
16315;DHT22;8266;52.150;4.768;2022-12-08T07:08:40;6.10;99.90
16315;DHT22;8266;52.150;4.768;2022-12-08T07:11:08;6.20;99.90
16315;DHT22;8266;52.150;4.768;2022-12-08T07:13:35;6.10;99.90
16315;DHT22;8266;52.150;4.768;2022-12-08T07:16:05;6.10;99.90
16315;DHT22;8266;52.150;4.768;2022-12-08T07:18:32;6.10;99.90
16315;DHT22;8266;52.150;4.768;2022-12-08T07:21:04;6.10;99.90
16315;DHT22;8266;52.150;4.768;2022-12-08T07:23:31;6.10;99.90
16315;DHT22;8266;52.150;4.768;2022-12-08T07:25:59;6.00;99.90
16315;DHT22;8266;52.150;4.768;2022-12-08T07:28:30;6.10;99.90
